createdAt,value
2022-08-07T00:01:43.006Z,46.90
2022-08-07T00:03:51.763Z,46.70
2022-08-07T00:06:18.645Z,46.80
2022-08-07T00:08:56.010Z,46.80
2022-08-07T00:11:30.025Z,46.90
2022-08-07T00:13:59.867Z,47.10
2022-08-07T00:16:28.137Z,46.60
2022-08-07T00:18:55.091Z,46.70
2022-08-07T00:21:57.053Z,47.00
2022-08-07T00:24:10.261Z,46.80
2022-08-07T00:26:59.065Z,46.90
2022-08-07T00:29:26.612Z,47.20
2022-08-07T00:32:01.817Z,47.30
2022-08-07T00:34:30.301Z,47.10
2022-08-07T00:36:59.080Z,47.30
2022-08-07T00:39:26.183Z,46.80
2022-08-07T00:42:02.023Z,47.10
2022-08-07T00:44:33.630Z,47.40
2022-08-07T00:47:01.727Z,47.10
2022-08-07T00:50:19.950Z,47.00
2022-08-07T00:52:17.682Z,46.90
2022-08-07T00:54:47.484Z,47.20
2022-08-07T00:57:22.499Z,47.30
2022-08-07T00:59:49.376Z,47.40
2022-08-07T01:02:28.362Z,47.30
2022-08-07T01:04:58.838Z,47.40
2022-08-07T01:07:28.027Z,47.60
2022-08-07T01:10:05.910Z,47.80
2022-08-07T01:12:36.035Z,48.00
2022-08-07T01:15:04.558Z,48.00
2022-08-07T01:17:32.687Z,48.10
2022-08-07T01:20:16.596Z,48.20
2022-08-07T01:22:46.708Z,48.20
2022-08-07T01:25:40.615Z,48.20
2022-08-07T01:28:08.291Z,48.30
2022-08-07T01:30:39.298Z,48.40
2022-08-07T01:33:08.800Z,48.40
2022-08-07T01:35:53.536Z,48.40
2022-08-07T01:38:25.027Z,48.50
2022-08-07T01:40:58.649Z,48.50
2022-08-07T01:43:27.199Z,48.60
2022-08-07T01:46:03.367Z,48.80
2022-08-07T01:48:32.530Z,49.10
2022-08-07T01:51:24.304Z,49.40
2022-08-07T01:54:12.638Z,49.50
2022-08-07T01:56:53.191Z,49.40
2022-08-07T01:59:31.041Z,49.40
2022-08-07T02:02:07.053Z,49.80
2022-08-07T02:05:16.160Z,50.10
2022-08-07T02:08:06.082Z,50.30
2022-08-07T02:10:37.561Z,50.40
2022-08-07T02:13:10.651Z,50.50
2022-08-07T02:15:39.920Z,50.70
2022-08-07T02:18:11.381Z,50.80
2022-08-07T02:20:40.439Z,51.00
2022-08-07T02:23:11.609Z,51.10
2022-08-07T02:26:30.460Z,51.20
2022-08-07T02:28:29.251Z,51.60
2022-08-07T02:30:57.509Z,52.00
2022-08-07T02:33:42.074Z,52.00
2022-08-07T02:36:28.564Z,52.30
2022-08-07T02:39:00.270Z,52.40
2022-08-07T02:41:33.200Z,52.50
2022-08-07T02:44:04.527Z,52.50
2022-08-07T02:46:33.583Z,52.50
2022-08-07T02:49:05.621Z,52.70
2022-08-07T02:51:42.383Z,53.20
2022-08-07T02:54:18.344Z,53.40
2022-08-07T02:56:47.899Z,53.20
2022-08-07T02:59:18.606Z,53.20
2022-08-07T03:01:52.236Z,53.20
2022-08-07T03:04:24.017Z,53.40
2022-08-07T03:06:52.920Z,53.70
2022-08-07T03:09:44.534Z,53.90
2022-08-07T03:12:21.798Z,54.00
2022-08-07T03:14:52.468Z,54.00
2022-08-07T03:17:19.850Z,53.80
2022-08-07T03:19:54.927Z,53.60
2022-08-07T03:22:24.294Z,53.70
2022-08-07T03:24:57.374Z,53.60
2022-08-07T03:27:30.912Z,53.50
2022-08-07T03:30:12.924Z,53.40
2022-08-07T03:32:57.019Z,53.40
2022-08-07T03:35:43.728Z,53.60
2022-08-07T03:38:17.058Z,53.70
2022-08-07T03:40:57.169Z,53.90
2022-08-07T03:43:26.500Z,54.10
2022-08-07T03:45:53.569Z,54.30
2022-08-07T03:48:20.504Z,54.50
2022-08-07T03:50:55.985Z,54.60
2022-08-07T03:56:14.299Z,55.20
2022-08-07T03:59:08.301Z,55.30
2022-08-07T04:01:29.970Z,55.60
2022-08-07T04:03:59.891Z,55.90
2022-08-07T04:06:37.660Z,55.80
2022-08-07T04:09:05.693Z,55.90
2022-08-07T04:12:27.948Z,56.20
2022-08-07T04:14:37.690Z,56.10
2022-08-07T04:17:16.409Z,56.10
2022-08-07T04:19:54.880Z,56.20
2022-08-07T04:22:27.533Z,56.40
2022-08-07T04:24:58.028Z,56.60
2022-08-07T04:27:26.657Z,56.60
2022-08-07T04:30:01.664Z,56.60
2022-08-07T04:32:34.386Z,56.80
2022-08-07T04:35:03.946Z,56.70
2022-08-07T04:37:52.852Z,56.70
2022-08-07T04:40:20.202Z,56.70
2022-08-07T04:42:51.898Z,56.80
2022-08-07T04:45:57.956Z,56.80
2022-08-07T04:48:19.995Z,56.90
2022-08-07T04:51:00.179Z,56.90
2022-08-07T04:54:06.348Z,57.10
2022-08-07T04:58:13.074Z,57.30
2022-08-07T05:00:12.687Z,57.50
2022-08-07T05:03:16.824Z,57.60
2022-08-07T05:06:19.459Z,57.90
2022-08-07T05:09:09.093Z,58.10
2022-08-07T05:11:58.334Z,58.40
2022-08-07T05:14:51.970Z,58.50
2022-08-07T05:17:52.698Z,58.50
2022-08-07T05:20:18.049Z,58.50
2022-08-07T05:22:47.683Z,58.70
2022-08-07T05:25:35.996Z,58.80
2022-08-07T05:28:19.935Z,58.70
2022-08-07T05:30:48.912Z,58.50
2022-08-07T05:33:18.137Z,58.50
2022-08-07T05:35:52.846Z,58.40
2022-08-07T05:38:59.369Z,58.00
2022-08-07T05:41:14.253Z,57.90
2022-08-07T05:44:08.521Z,56.20
2022-08-07T05:46:36.111Z,55.20
2022-08-07T05:49:11.665Z,54.30
2022-08-07T05:51:42.373Z,53.70
2022-08-07T05:54:31.513Z,53.60
2022-08-07T05:56:58.727Z,53.10
2022-08-07T05:59:27.427Z,53.20
2022-08-07T06:01:57.136Z,52.20
2022-08-07T06:04:26.258Z,51.80
2022-08-07T06:07:03.651Z,51.90
2022-08-07T06:10:04.623Z,51.60
2022-08-07T06:12:21.032Z,51.50
2022-08-07T06:14:55.123Z,51.50
2022-08-07T06:17:31.998Z,51.10
2022-08-07T06:20:05.914Z,50.70
2022-08-07T06:22:42.236Z,50.30
2022-08-07T06:25:29.000Z,50.10
2022-08-07T06:28:06.986Z,49.90
2022-08-07T06:30:45.410Z,49.90
2022-08-07T06:33:15.982Z,48.90
2022-08-07T06:35:47.699Z,48.10
2022-08-07T06:38:20.400Z,47.60
2022-08-07T06:40:50.865Z,47.60
2022-08-07T06:43:23.536Z,47.40
2022-08-07T06:45:50.887Z,47.00
2022-08-07T06:48:24.810Z,46.60
2022-08-07T06:50:54.714Z,46.40
2022-08-07T06:55:27.919Z,46.10
2022-08-07T06:56:15.279Z,45.80
2022-08-07T07:00:12.818Z,45.20
2022-08-07T07:01:33.126Z,45.40
2022-08-07T07:04:28.601Z,45.70
2022-08-07T07:07:01.203Z,46.00
2022-08-07T07:09:30.822Z,45.30
2022-08-07T07:12:19.685Z,44.80
2022-08-07T07:15:24.047Z,44.50
2022-08-07T07:18:02.764Z,44.50
2022-08-07T07:20:50.950Z,43.80
2022-08-07T07:24:11.241Z,43.50
2022-08-07T07:26:32.445Z,43.80
2022-08-07T07:29:56.988Z,43.50
2022-08-07T07:31:50.975Z,43.40
2022-08-07T07:34:22.375Z,43.00
2022-08-07T07:37:14.666Z,42.70
2022-08-07T07:39:54.437Z,42.40
2022-08-07T07:42:32.623Z,42.20
2022-08-07T07:45:02.004Z,41.70
2022-08-07T07:47:30.185Z,41.70
2022-08-07T07:50:35.274Z,42.00
2022-08-07T07:52:59.010Z,41.50
2022-08-07T07:55:37.304Z,41.40
2022-08-07T07:58:05.840Z,40.90
2022-08-07T08:00:34.186Z,41.10
2022-08-07T08:03:08.765Z,41.30
2022-08-07T08:05:51.097Z,40.80
2022-08-07T08:08:35.708Z,41.00
2022-08-07T08:11:13.595Z,41.20
2022-08-07T08:13:54.365Z,40.70
2022-08-07T08:16:29.950Z,40.40
2022-08-07T08:19:00.503Z,40.20
2022-08-07T08:22:09.835Z,40.20
2022-08-07T08:25:18.308Z,40.50
2022-08-07T08:27:56.687Z,40.10
2022-08-07T08:30:31.971Z,39.90
2022-08-07T08:33:01.822Z,39.70
2022-08-07T08:35:39.560Z,39.50
2022-08-07T08:38:16.829Z,39.80
2022-08-07T08:41:02.882Z,39.90
2022-08-07T08:43:59.010Z,39.90
2022-08-07T08:46:44.926Z,39.70
2022-08-07T08:49:46.335Z,39.60
2022-08-07T08:52:36.065Z,39.50
2022-08-07T08:55:54.560Z,39.20
2022-08-07T08:58:59.855Z,38.80
2022-08-07T09:01:46.506Z,38.90
2022-08-07T09:04:25.967Z,39.10
2022-08-07T09:07:06.554Z,39.20
2022-08-07T09:09:56.697Z,38.70
2022-08-07T09:12:34.608Z,38.50
2022-08-07T09:16:21.957Z,38.70
2022-08-07T09:18:38.525Z,38.70
2022-08-07T09:22:09.747Z,38.80
2022-08-07T09:25:00.521Z,38.80
2022-08-07T09:28:00.436Z,39.10
2022-08-07T09:30:36.462Z,39.30
2022-08-07T09:33:52.684Z,39.50
2022-08-07T09:36:42.774Z,39.00
2022-08-07T09:39:54.016Z,38.90
2022-08-07T09:42:23.050Z,38.60
2022-08-07T09:47:52.782Z,38.80
2022-08-07T09:48:50.159Z,38.80
2022-08-07T09:52:10.594Z,38.20
2022-08-07T09:54:40.850Z,38.10
2022-08-07T09:57:46.679Z,37.50
2022-08-07T10:00:21.525Z,37.70
2022-08-07T10:04:04.833Z,37.50
2022-08-07T10:06:39.622Z,37.50
2022-08-07T10:09:16.155Z,37.30
2022-08-07T10:12:28.478Z,37.10
2022-08-07T10:15:18.759Z,37.40
2022-08-07T10:18:26.351Z,36.90
2022-08-07T10:22:12.331Z,36.90
2022-08-07T10:24:24.883Z,36.90
2022-08-07T10:27:30.070Z,36.50
2022-08-07T10:30:24.901Z,36.60
2022-08-07T10:33:02.114Z,36.60
2022-08-07T10:35:56.106Z,36.60
2022-08-07T10:38:36.169Z,36.70
2022-08-07T10:41:51.609Z,36.80
2022-08-07T10:44:28.515Z,37.00
2022-08-07T10:47:27.001Z,37.50
2022-08-07T10:50:25.730Z,37.30
2022-08-07T10:53:27.259Z,37.70
2022-08-07T10:56:32.895Z,37.90
2022-08-07T10:59:24.129Z,38.30
2022-08-07T11:02:04.877Z,38.10
2022-08-07T11:04:59.518Z,37.70
2022-08-07T11:07:59.628Z,37.50
2022-08-07T11:10:38.049Z,38.00
2022-08-07T11:14:42.332Z,37.10
2022-08-07T11:16:29.923Z,37.00
2022-08-07T11:19:27.234Z,36.80
2022-08-07T11:22:27.404Z,37.40
2022-08-07T11:25:15.723Z,37.60
2022-08-07T11:28:03.085Z,37.20
2022-08-07T11:30:52.369Z,37.80
2022-08-07T11:33:53.600Z,37.10
2022-08-07T11:36:30.646Z,37.10
2022-08-07T11:38:57.701Z,37.10
2022-08-07T11:42:02.247Z,37.30
2022-08-07T11:44:57.511Z,37.80
2022-08-07T11:48:17.988Z,37.60
2022-08-07T11:50:59.373Z,37.20
2022-08-07T11:53:37.972Z,37.20
2022-08-07T11:56:28.120Z,37.40
2022-08-07T12:00:11.876Z,37.50
2022-08-07T12:02:34.984Z,37.90
2022-08-07T12:05:41.183Z,38.00
2022-08-07T12:08:25.425Z,38.00
2022-08-07T12:11:20.273Z,37.70
2022-08-07T12:14:08.412Z,37.20
2022-08-07T12:16:46.133Z,37.30
2022-08-07T12:19:56.675Z,37.10
2022-08-07T12:22:55.945Z,37.70
2022-08-07T12:26:05.459Z,37.60
2022-08-07T12:28:49.787Z,37.80
2022-08-07T12:32:01.691Z,37.00
2022-08-07T12:34:29.778Z,36.90
2022-08-07T12:36:59.531Z,37.70
2022-08-07T12:39:44.232Z,38.10
2022-08-07T12:42:27.037Z,38.20
2022-08-07T12:44:57.915Z,37.60
2022-08-07T12:47:52.076Z,37.40
2022-08-07T12:50:39.875Z,37.20
2022-08-07T12:54:24.023Z,37.20
2022-08-07T12:56:37.219Z,36.30
2022-08-07T12:59:08.395Z,36.90
2022-08-07T13:02:13.069Z,37.00
2022-08-07T13:05:14.678Z,37.00
2022-08-07T13:08:13.539Z,37.00
2022-08-07T13:11:00.969Z,37.20
2022-08-07T13:13:57.474Z,36.90
2022-08-07T13:16:30.478Z,36.70
2022-08-07T13:19:50.788Z,36.70
2022-08-07T13:22:33.061Z,36.40
2022-08-07T13:25:24.052Z,36.20
2022-08-07T13:28:12.622Z,35.80
2022-08-07T13:30:49.108Z,35.30
2022-08-07T13:34:32.828Z,35.10
2022-08-07T13:36:30.268Z,34.90
2022-08-07T13:39:12.858Z,35.10
2022-08-07T13:41:47.519Z,35.50
2022-08-07T13:44:26.017Z,35.10
2022-08-07T13:46:58.745Z,35.10
2022-08-07T13:50:33.401Z,35.30
2022-08-07T13:52:32.550Z,35.40
2022-08-07T13:55:07.042Z,35.40
2022-08-07T13:57:38.538Z,35.40
2022-08-07T14:00:08.465Z,35.20
2022-08-07T14:02:55.920Z,34.90
2022-08-07T14:05:24.613Z,34.90
2022-08-07T14:08:06.775Z,35.10
2022-08-07T14:10:41.947Z,35.20
2022-08-07T14:13:14.110Z,35.10
2022-08-07T14:15:50.459Z,34.60
2022-08-07T14:18:30.459Z,33.60
2022-08-07T14:21:21.131Z,33.70
2022-08-07T14:24:13.744Z,33.20
2022-08-07T14:26:59.839Z,33.80
2022-08-07T14:30:02.847Z,33.90
2022-08-07T14:32:26.679Z,33.50
2022-08-07T14:34:55.418Z,33.90
2022-08-07T14:37:36.397Z,33.90
2022-08-07T14:40:18.277Z,33.30
2022-08-07T14:43:58.260Z,33.70
2022-08-07T14:46:04.097Z,33.90
2022-08-07T14:48:33.972Z,34.50
2022-08-07T14:51:07.250Z,34.80
2022-08-07T14:56:41.376Z,34.10
2022-08-07T14:59:13.787Z,34.20
2022-08-07T15:02:07.918Z,34.40
2022-08-07T15:04:56.234Z,34.30
2022-08-07T15:10:26.616Z,33.90
2022-08-07T15:13:19.798Z,33.70
2022-08-07T15:15:52.554Z,34.20
2022-08-07T15:21:44.151Z,33.80
2022-08-07T15:25:14.890Z,33.30
2022-08-07T15:27:12.130Z,33.30
2022-08-07T15:30:04.651Z,32.90
2022-08-07T15:32:39.119Z,33.00
2022-08-07T15:35:14.515Z,33.00
2022-08-07T15:38:17.995Z,32.80
2022-08-07T15:40:37.130Z,32.80
2022-08-07T15:43:33.152Z,33.30
2022-08-07T15:46:34.319Z,32.90
2022-08-07T15:54:39.452Z,32.80
2022-08-07T15:57:28.050Z,32.70
2022-08-07T15:59:59.335Z,32.70
2022-08-07T16:02:30.002Z,32.80
2022-08-07T16:05:15.163Z,33.10
2022-08-07T16:08:32.552Z,32.70
2022-08-07T16:10:41.362Z,33.00
2022-08-07T16:13:39.614Z,33.00
2022-08-07T16:16:42.939Z,32.80
2022-08-07T16:19:41.928Z,32.50
2022-08-07T16:22:55.414Z,32.50
2022-08-07T16:26:01.124Z,32.90
2022-08-07T16:30:08.897Z,33.20
2022-08-07T16:31:50.920Z,33.20
2022-08-07T16:34:45.284Z,33.20
2022-08-07T16:38:03.934Z,33.20
2022-08-07T16:41:04.381Z,32.80
2022-08-07T16:44:05.865Z,32.70
2022-08-07T16:47:25.178Z,32.60
2022-08-07T16:50:37.005Z,32.90
2022-08-07T16:54:02.343Z,32.60
2022-08-07T16:57:03.210Z,32.30
2022-08-07T16:59:46.178Z,32.50
2022-08-07T17:02:51.809Z,32.10
2022-08-07T17:06:19.636Z,32.50
2022-08-07T17:08:05.509Z,32.80
2022-08-07T17:10:54.386Z,32.80
2022-08-07T17:13:41.408Z,32.60
2022-08-07T17:16:28.462Z,32.30
2022-08-07T17:20:02.158Z,32.20
2022-08-07T17:22:30.188Z,32.30
2022-08-07T17:25:19.359Z,32.50
2022-08-07T17:28:13.067Z,32.70
2022-08-07T17:31:00.525Z,32.20
2022-08-07T17:34:15.314Z,32.00
2022-08-07T17:36:58.041Z,32.10
2022-08-07T17:39:57.709Z,32.20
2022-08-07T17:42:59.837Z,32.50
2022-08-07T17:45:35.019Z,32.40
2022-08-07T17:48:06.779Z,32.10
2022-08-07T17:50:49.091Z,32.10
2022-08-07T17:54:01.377Z,32.40
2022-08-07T17:56:26.119Z,32.10
2022-08-07T17:58:56.894Z,32.10
2022-08-07T18:01:47.329Z,32.30
2022-08-07T18:04:37.533Z,32.60
2022-08-07T18:07:20.439Z,32.50
2022-08-07T18:10:06.309Z,32.60
2022-08-07T18:12:59.521Z,32.80
2022-08-07T18:15:33.042Z,33.00
2022-08-07T18:18:39.775Z,33.00
2022-08-07T18:21:38.297Z,33.00
2022-08-07T18:24:33.236Z,32.90
2022-08-07T18:27:10.592Z,32.80
2022-08-07T18:30:32.478Z,32.80
2022-08-07T18:33:15.589Z,32.70
2022-08-07T18:36:33.254Z,33.00
2022-08-07T18:40:08.306Z,33.10
2022-08-07T18:42:56.248Z,33.30
2022-08-07T18:46:24.976Z,33.40
2022-08-07T18:50:31.269Z,33.60
2022-08-07T18:52:33.855Z,33.70
2022-08-07T18:54:57.200Z,34.00
2022-08-07T18:57:42.696Z,33.80
2022-08-07T19:00:54.182Z,34.10
2022-08-07T19:03:37.521Z,34.90
2022-08-07T19:06:51.344Z,35.20
2022-08-07T19:09:56.199Z,35.80
2022-08-07T19:13:10.185Z,36.10
2022-08-07T19:17:05.967Z,36.10
2022-08-07T19:19:14.293Z,35.90
2022-08-07T19:21:43.803Z,36.20
2022-08-07T19:24:50.014Z,36.10
2022-08-07T19:28:29.828Z,35.70
2022-08-07T19:31:02.151Z,35.70
2022-08-07T19:33:10.099Z,35.80
2022-08-07T19:35:51.690Z,36.50
2022-08-07T19:38:20.383Z,36.50
2022-08-07T19:40:51.405Z,36.20
2022-08-07T19:43:49.218Z,36.30
2022-08-07T19:46:19.233Z,36.70
2022-08-07T19:48:55.873Z,37.00
2022-08-07T19:51:51.780Z,37.30
2022-08-07T19:54:32.177Z,37.70
2022-08-07T19:58:02.713Z,37.70
2022-08-07T19:59:55.922Z,37.80
2022-08-07T20:02:53.637Z,38.00
2022-08-07T20:05:30.403Z,38.10
2022-08-07T20:08:23.593Z,38.40
2022-08-07T20:11:03.676Z,38.70
2022-08-07T20:13:41.810Z,38.90
2022-08-07T20:16:32.319Z,39.00
2022-08-07T20:19:04.461Z,39.20
2022-08-07T20:21:42.044Z,39.40
2022-08-07T20:24:18.296Z,39.60
2022-08-07T20:26:52.116Z,39.90
2022-08-07T20:29:48.003Z,40.00
2022-08-07T20:32:27.931Z,40.20
2022-08-07T20:35:16.298Z,40.20
2022-08-07T20:37:57.666Z,40.40
2022-08-07T20:40:32.000Z,40.90
2022-08-07T20:43:03.678Z,40.80
2022-08-07T20:46:27.530Z,40.90
2022-08-07T20:48:30.860Z,40.80
2022-08-07T20:51:04.660Z,40.90
2022-08-07T20:54:02.804Z,41.10
2022-08-07T20:56:28.865Z,41.20
2022-08-07T20:59:00.755Z,41.60
2022-08-07T21:01:45.167Z,41.80
2022-08-07T21:04:22.676Z,41.90
2022-08-07T21:06:55.332Z,42.00
2022-08-07T21:09:52.154Z,42.20
2022-08-07T21:12:28.883Z,42.50
2022-08-07T21:14:58.589Z,42.60
2022-08-07T21:18:03.234Z,42.90
2022-08-07T21:20:26.577Z,42.90
2022-08-07T21:22:59.048Z,43.10
2022-08-07T21:26:01.432Z,43.10
2022-08-07T21:28:53.799Z,43.50
2022-08-07T21:32:43.096Z,43.80
2022-08-07T21:35:15.118Z,43.80
2022-08-07T21:38:06.914Z,44.10
2022-08-07T21:40:43.379Z,44.30
2022-08-07T21:43:10.598Z,44.40
2022-08-07T21:46:10.079Z,44.60
2022-08-07T21:48:57.386Z,44.60
2022-08-07T21:51:55.876Z,44.90
2022-08-07T21:54:34.745Z,44.70
2022-08-07T21:57:31.514Z,45.00
2022-08-07T22:00:20.496Z,45.10
2022-08-07T22:03:17.418Z,45.30
2022-08-07T22:06:30.653Z,45.30
2022-08-07T22:09:12.311Z,45.20
2022-08-07T22:11:52.965Z,45.30
2022-08-07T22:14:38.935Z,45.50
2022-08-07T22:17:35.874Z,45.80
2022-08-07T22:20:23.052Z,46.00
2022-08-07T22:22:57.257Z,46.20
2022-08-07T22:26:06.189Z,46.20
2022-08-07T22:28:53.141Z,46.30
2022-08-07T22:31:45.358Z,46.40
2022-08-07T22:34:29.084Z,46.50
2022-08-07T22:37:17.044Z,46.30
2022-08-07T22:39:56.110Z,46.20
2022-08-07T22:42:29.338Z,46.10
2022-08-07T22:44:59.985Z,46.20
2022-08-07T22:47:49.287Z,46.50
2022-08-07T22:50:43.249Z,46.60
2022-08-07T22:54:07.767Z,46.60
2022-08-07T22:56:37.636Z,46.80
2022-08-07T22:59:36.460Z,47.00
2022-08-07T23:02:34.600Z,47.30
2022-08-07T23:06:09.401Z,47.50
2022-08-07T23:08:42.151Z,47.60
2022-08-07T23:11:41.268Z,47.70
2022-08-07T23:14:23.138Z,47.80
2022-08-07T23:17:08.619Z,48.00
2022-08-07T23:20:51.560Z,47.70
2022-08-07T23:23:15.607Z,47.40
2022-08-07T23:26:25.101Z,47.40
2022-08-07T23:29:43.390Z,48.10
2022-08-07T23:34:23.842Z,47.90
2022-08-07T23:36:03.539Z,48.00
2022-08-07T23:39:15.860Z,48.40
2022-08-07T23:42:31.685Z,48.70
2022-08-07T23:45:32.988Z,48.40
2022-08-07T23:48:29.393Z,48.50
2022-08-07T23:52:58.188Z,48.30
2022-08-07T23:54:46.042Z,48.60
2022-08-07T23:57:30.493Z,48.70
